Time;durP1;ratioP1;P1;durP2;ratioP2;P2;SDS_P1;SDS_P2;PMS_P1;PMS_P2;Temp;Humidity;BMP_temperature;BMP_pressure;BME280_temperature;BME280_humidity;BME280_pressure;Samples;Min_cycle;Max_cycle;Signal;HPM_P1;HPM_P2
2022/07/04 00:00:06;;;;;;;13.58;6.25;;;;;;;22.53;100.00;99768.41;1658092;85;21073;-75
2022/07/04 00:02:33;;;;;;;9.28;6.62;;;;;;;22.59;100.00;99771.84;1666757;84;21084;-75
2022/07/04 00:05:01;;;;;;;7.92;6.12;;;;;;;22.55;100.00;99766.02;1662573;84;21089;-78
2022/07/04 00:07:28;;;;;;;10.13;5.85;;;;;;;22.38;100.00;99781.01;1674083;84;21065;-78
2022/07/04 00:09:55;;;;;;;10.20;5.90;;;;;;;22.37;100.00;99785.80;1664375;85;21630;-77
2022/07/04 00:12:22;;;;;;;10.05;5.30;;;;;;;22.37;100.00;99787.80;1619748;86;20997;-78
2022/07/04 00:14:48;;;;;;;9.30;5.50;;;;;;;22.42;100.00;99786.61;1679292;83;21106;-78
2022/07/04 00:17:16;;;;;;;11.70;5.40;;;;;;;22.49;100.00;99777.63;1670386;85;21076;-79
2022/07/04 00:19:44;;;;;;;6.85;4.60;;;;;;;22.38;100.00;99773.37;1675161;84;21100;-74
2022/07/04 00:22:10;;;;;;;12.18;5.40;;;;;;;22.32;100.00;99783.38;1682881;84;21802;-77
2022/07/04 00:24:43;;;;;;;9.25;5.78;;;;;;;22.29;100.00;99779.97;1695239;83;21073;-78
2022/07/04 00:27:10;;;;;;;14.20;6.12;;;;;;;22.36;100.00;99777.78;1680945;85;21114;-76
2022/07/04 00:29:36;;;;;;;13.72;6.47;;;;;;;22.35;100.00;99783.98;1682797;83;21031;-79
2022/07/04 00:32:06;;;;;;;9.38;5.55;;;;;;;22.33;100.00;99783.58;1684639;83;21142;-78
2022/07/04 00:34:34;;;;;;;10.98;5.90;;;;;;;22.23;100.00;99782.34;1680083;83;21782;-78
2022/07/04 00:37:06;;;;;;;19.20;6.60;;;;;;;22.16;100.00;99779.48;1689487;83;21108;-78
2022/07/04 00:39:33;;;;;;;8.83;5.08;;;;;;;22.18;100.00;99783.33;1681635;84;21087;-78
2022/07/04 00:41:59;;;;;;;10.10;5.95;;;;;;;22.17;100.00;99785.33;1676485;84;21069;-79
2022/07/04 00:44:26;;;;;;;11.20;5.58;;;;;;;22.33;100.00;99786.38;1684234;84;21048;-77
2022/07/04 00:46:58;;;;;;;9.23;5.83;;;;;;;22.34;100.00;99782.39;1675595;85;21241;-79
2022/07/04 00:49:25;;;;;;;8.35;5.65;;;;;;;22.16;100.00;99776.69;1682738;85;21052;-78
2022/07/04 00:51:51;;;;;;;14.55;6.00;;;;;;;22.17;100.00;99773.29;1686671;83;21017;-78
2022/07/04 00:54:21;;;;;;;12.30;6.20;;;;;;;22.09;100.00;99777.45;1651512;86;20996;-76
2022/07/04 00:56:49;;;;;;;9.55;5.30;;;;;;;22.00;100.00;99779.23;1627979;86;21009;-77
2022/07/04 00:59:15;;;;;;;12.28;5.37;;;;;;;21.98;100.00;99778.01;1657700;86;21294;-77
2022/07/04 01:01:44;;;;;;;11.80;5.90;;;;;;;22.10;100.00;99778.27;1668766;84;21324;-76
2022/07/04 01:04:11;;;;;;;9.05;5.30;;;;;;;22.20;100.00;99778.11;1681775;83;21482;-76
2022/07/04 01:06:40;;;;;;;10.63;5.55;;;;;;;22.24;100.00;99776.14;1683226;85;20985;-77
2022/07/04 01:09:06;;;;;;;8.68;5.80;;;;;;;22.21;100.00;99778.33;1682746;84;21016;-75
2022/07/04 01:11:33;;;;;;;7.35;5.20;;;;;;;22.16;100.00;99776.69;1681220;84;21524;-75
2022/07/04 01:14:02;;;;;;;10.80;5.80;;;;;;;22.21;100.00;99789.55;1682372;84;21055;-78
2022/07/04 01:16:29;;;;;;;11.63;6.53;;;;;;;22.28;100.00;99790.19;1693753;83;21472;-79
2022/07/04 01:18:55;;;;;;;8.50;6.17;;;;;;;22.04;100.00;99786.24;1684613;83;21014;-77
2022/07/04 01:21:22;;;;;;;11.83;6.72;;;;;;;22.03;100.00;99789.44;1681205;85;21112;-77
2022/07/04 01:23:49;;;;;;;8.78;5.95;;;;;;;21.99;100.00;99788.83;1683406;84;21526;-76
2022/07/04 01:26:16;;;;;;;12.07;6.87;;;;;;;22.05;100.00;99787.87;1685442;84;21726;-78
2022/07/04 01:28:44;;;;;;;10.38;7.12;;;;;;;21.92;100.00;99788.00;1678422;84;21574;-77
2022/07/04 01:31:10;;;;;;;10.03;6.92;;;;;;;21.82;100.00;99779.73;1685874;85;20997;-79
2022/07/04 01:33:40;;;;;;;12.88;7.08;;;;;;;21.61;100.00;99781.98;1682823;84;20984;-78
2022/07/04 01:36:06;;;;;;;12.90;7.45;;;;;;;21.64;100.00;99775.59;1682832;83;21170;-78
2022/07/04 01:38:35;;;;;;;13.60;7.03;;;;;;;21.75;100.00;99779.84;1684016;84;21556;-75
2022/07/04 01:41:01;;;;;;;15.05;8.58;;;;;;;21.79;100.00;99781.31;1677682;85;20978;-77
2022/07/04 01:43:28;;;;;;;22.27;9.30;;;;;;;21.92;100.00;99788.78;1677416;85;21012;-78
2022/07/04 01:45:54;;;;;;;15.00;7.25;;;;;;;21.83;100.00;99790.56;1648149;85;21041;-77
2022/07/04 01:48:21;;;;;;;12.85;7.53;;;;;;;21.74;100.00;99788.66;1650109;86;21231;-78
2022/07/04 01:50:47;;;;;;;13.53;8.40;;;;;;;21.82;100.00;99787.53;1686863;85;21071;-75
2022/07/04 01:53:16;;;;;;;12.63;8.40;;;;;;;21.88;100.00;99783.18;1681333;84;21045;-76
2022/07/04 01:55:42;;;;;;;13.18;8.45;;;;;;;21.96;100.00;99787.41;1681774;85;20977;-74
2022/07/04 01:58:10;;;;;;;14.43;8.90;;;;;;;21.93;100.00;99786.79;1685086;84;20993;-78
2022/07/04 02:03:21;;;;;;;11.85;7.53;;;;;;;21.86;100.00;99794.56;1678492;85;21541;-77
2022/07/04 02:05:49;;;;;;;18.27;8.23;;;;;;;21.77;100.00;99788.68;1662120;84;21506;-78
2022/07/04 02:08:17;;;;;;;11.55;7.25;;;;;;;21.76;100.00;99786.27;1652694;86;21628;-76
2022/07/04 02:10:45;;;;;;;12.00;7.33;;;;;;;21.87;100.00;99791.98;1658133;86;21050;-76
2022/07/04 02:13:11;;;;;;;12.15;6.72;;;;;;;21.98;100.00;99792.03;1643306;86;21145;-78
2022/07/04 02:15:40;;;;;;;12.15;7.72;;;;;;;21.94;100.00;99791.22;1636950;86;21084;-76
2022/07/04 02:18:10;;;;;;;16.70;7.67;;;;;;;21.83;100.00;99787.75;1651883;85;21098;-74
2022/07/04 02:20:39;;;;;;;15.68;8.45;;;;;;;21.80;100.00;99784.34;1655084;85;21013;-77
2022/07/04 02:23:07;;;;;;;17.10;8.05;;;;;;;21.82;100.00;99784.73;1657010;85;21047;-74
2022/07/04 02:25:35;;;;;;;15.78;7.15;;;;;;;21.88;100.00;99790.19;1657482;86;21059;-78
2022/07/04 02:28:07;;;;;;;12.93;6.92;;;;;;;21.67;100.00;99792.21;1653821;85;21059;-77
2022/07/04 02:30:38;;;;;;;12.18;7.17;;;;;;;21.65;100.00;99794.01;1636837;86;21124;-77
2022/07/04 02:33:07;;;;;;;14.15;7.35;;;;;;;21.71;100.00;99789.44;1652848;85;21105;-75
2022/07/04 02:35:35;;;;;;;12.00;7.28;;;;;;;21.77;100.00;99794.87;1657780;86;21084;-77
2022/07/04 02:38:04;;;;;;;11.33;7.87;;;;;;;21.95;100.00;99790.83;1650707;85;21269;-77
2022/07/04 02:40:33;;;;;;;12.80;8.08;;;;;;;21.98;100.00;99783.03;1645438;86;21039;-75
2022/07/04 02:42:59;;;;;;;10.10;7.25;;;;;;;22.05;100.00;99785.66;1638722;85;21058;-77
2022/07/04 02:45:26;;;;;;;9.38;7.05;;;;;;;22.09;100.00;99794.91;1636723;86;21058;-76
2022/07/04 02:47:54;;;;;;;11.70;7.60;;;;;;;22.12;100.00;99785.11;1627643;86;21068;-75
2022/07/04 02:50:21;;;;;;;12.33;6.72;;;;;;;22.16;100.00;99785.72;1647713;85;21796;-78
2022/07/04 02:52:47;;;;;;;22.73;11.10;;;;;;;22.12;100.00;99793.53;1656679;85;21481;-76
2022/07/04 02:55:14;;;;;;;16.40;8.08;;;;;;;22.07;100.00;99793.90;1632017;86;21022;-77
2022/07/04 02:57:40;;;;;;;12.68;8.30;;;;;;;21.90;100.00;99795.41;1659442;86;21037;-76
2022/07/04 03:00:12;;;;;;;15.20;8.73;;;;;;;21.84;100.00;99798.35;1636830;86;21032;-77
2022/07/04 03:02:38;;;;;;;14.40;8.48;;;;;;;21.85;100.00;99793.75;1642348;85;21812;-78
2022/07/04 03:05:08;;;;;;;13.45;7.87;;;;;;;21.85;100.00;99790.95;1615889;85;21068;-76
2022/07/04 03:07:34;;;;;;;16.30;8.08;;;;;;;21.88;100.00;99791.59;1633848;86;21100;-78
2022/07/04 03:10:06;;;;;;;15.20;7.35;;;;;;;21.96;100.00;99794.42;1593923;88;21519;-78
2022/07/04 03:12:34;;;;;;;9.60;7.08;;;;;;;22.06;100.00;99799.28;1601992;88;21054;-78
2022/07/04 03:15:01;;;;;;;16.00;8.93;;;;;;;22.18;100.00;99800.95;1634892;86;21134;-79
2022/07/04 03:17:30;;;;;;;20.20;7.05;;;;;;;22.32;100.00;99803.02;1637794;86;21028;-77
2022/07/04 03:19:57;;;;;;;13.58;8.13;;;;;;;22.42;100.00;99802.05;1640439;86;21026;-78
2022/07/04 03:22:28;;;;;;;18.95;8.55;;;;;;;22.48;100.00;99799.86;1640556;86;21026;-77
2022/07/04 03:25:00;;;;;;;26.45;9.88;;;;;;;22.65;100.00;99800.96;1644805;84;20968;-77
2022/07/04 03:27:28;;;;;;;19.07;8.70;;;;;;;22.64;100.00;99809.19;1656259;86;21498;-75
2022/07/04 03:29:56;;;;;;;24.18;10.53;;;;;;;22.64;100.00;99809.97;1657682;86;20970;-76
2022/07/04 03:32:25;;;;;;;14.93;8.60;;;;;;;22.70;100.00;99807.59;1654542;86;21519;-77
2022/07/04 03:34:51;;;;;;;15.38;7.78;;;;;;;22.78;100.00;99818.23;1645357;85;21004;-76
2022/07/04 03:37:18;;;;;;;14.33;7.83;;;;;;;22.86;100.00;99812.24;1642475;86;21031;-77
2022/07/04 03:39:45;;;;;;;11.57;7.80;;;;;;;22.84;100.00;99811.05;1643601;86;21325;-76
2022/07/04 03:42:15;;;;;;;12.68;7.45;;;;;;;22.96;100.00;99812.67;1633679;86;20980;-77
2022/07/04 03:44:44;;;;;;;15.35;7.42;;;;;;;23.02;100.00;99808.27;1648449;86;21021;-78
2022/07/04 03:47:10;;;;;;;10.35;6.60;;;;;;;23.08;100.00;99796.82;1629887;86;21035;-77
2022/07/04 03:49:39;;;;;;;12.40;6.37;;;;;;;23.21;100.00;99800.66;1642168;85;21054;-79
2022/07/04 03:52:06;;;;;;;15.18;7.75;;;;;;;23.41;100.00;99794.06;1652390;86;21878;-75
2022/07/04 03:54:33;;;;;;;9.93;6.90;;;;;;;23.51;100.00;99793.84;1653330;86;21091;-79
2022/07/04 03:56:59;;;;;;;14.98;6.92;;;;;;;23.58;100.00;99800.88;1651513;86;21070;-79
2022/07/04 03:59:26;;;;;;;12.10;6.97;;;;;;;23.69;100.00;99798.66;1649971;86;21571;-78
2022/07/04 04:01:54;;;;;;;9.43;6.30;;;;;;;23.85;100.00;99796.02;1636992;86;21059;-78
2022/07/04 04:07:06;;;;;;;8.70;5.30;;;;;;;23.83;100.00;99801.44;1654064;85;21088;-75
2022/07/04 04:09:33;;;;;;;11.63;6.55;;;;;;;23.89;100.00;99801.02;1677165;83;20984;-78
2022/07/04 04:12:02;;;;;;;12.37;6.87;;;;;;;23.98;100.00;99795.79;1680554;84;21022;-78
2022/07/04 04:14:28;;;;;;;9.80;6.85;;;;;;;24.06;100.00;99793.15;1682265;83;21088;-78
2022/07/04 04:16:55;;;;;;;14.38;7.08;;;;;;;24.14;100.00;99784.69;1682029;85;21175;-76
2022/07/04 04:19:22;;;;;;;10.85;7.17;;;;;;;24.05;100.00;99785.90;1672074;85;20980;-74
2022/07/04 04:21:48;;;;;;;10.18;5.70;;;;;;;24.21;100.00;99785.30;1671910;84;21133;-76
2022/07/04 04:24:14;;;;;;;10.35;6.78;;;;;;;24.32;100.00;99793.08;1669256;83;21470;-77
2022/07/04 04:26:42;;;;;;;8.70;5.78;;;;;;;24.23;100.00;99790.70;1681762;83;21583;-76
2022/07/04 04:29:10;;;;;;;7.87;5.83;;;;;;;24.44;100.00;99790.42;1675015;84;21152;-77
2022/07/04 04:31:36;;;;;;;12.47;5.55;;;;;;;24.50;100.00;99784.55;1680366;84;21171;-77
2022/07/04 04:34:03;;;;;;;12.40;6.22;;;;;;;24.67;100.00;99783.45;1675498;85;21098;-76
2022/07/04 04:36:30;;;;;;;8.88;5.78;;;;;;;24.74;100.00;99777.78;1676743;85;21045;-75
2022/07/04 04:38:58;;;;;;;11.50;5.65;;;;;;;24.93;100.00;99772.85;1675754;85;20997;-76
2022/07/04 04:41:24;;;;;;;9.30;5.25;;;;;;;24.98;100.00;99771.61;1675579;84;21117;-76
2022/07/04 04:43:51;;;;;;;12.53;6.25;;;;;;;24.93;100.00;99768.62;1665408;85;21020;-76
2022/07/04 04:46:21;;;;;;;8.20;4.35;;;;;;;25.07;100.00;99772.55;1684655;85;21024;-75
2022/07/04 04:48:49;;;;;;;6.67;4.58;;;;;;;25.04;100.00;99767.93;1685094;85;21013;-75
2022/07/04 04:51:16;;;;;;;11.03;4.50;;;;;;;25.20;100.00;99773.66;1685340;84;21021;-76
2022/07/04 04:53:42;;;;;;;9.88;4.70;;;;;;;25.67;100.00;99768.84;1686182;85;21609;-73
2022/07/04 04:56:10;;;;;;;5.85;4.20;;;;;;;25.88;100.00;99766.38;1682258;84;21104;-75
2022/07/04 04:58:39;;;;;;;7.28;3.70;;;;;;;26.01;100.00;99768.88;1680104;85;21083;-75
2022/07/04 05:01:06;;;;;;;7.92;4.15;;;;;;;25.91;100.00;99768.39;1682890;84;21005;-76
2022/07/04 05:03:36;;;;;;;10.05;4.25;;;;;;;26.05;100.00;99766.62;1685273;84;21027;-76
2022/07/04 05:06:02;;;;;;;5.80;3.90;;;;;;;26.27;100.00;99762.11;1686304;84;21127;-76
2022/07/04 05:08:34;;;;;;;9.83;4.28;;;;;;;26.49;100.00;99767.67;1682215;84;20996;-76
2022/07/04 05:11:00;;;;;;;4.10;3.30;;;;;;;26.53;100.00;99766.85;1677806;84;21022;-75
2022/07/04 05:13:28;;;;;;;4.67;3.45;;;;;;;26.07;100.00;99764.16;1679713;84;21014;-74
2022/07/04 05:16:10;;;;;;;5.58;3.12;;;;;;;25.98;100.00;99759.03;1673614;85;20970;-77
2022/07/04 05:18:37;;;;;;;6.55;3.62;;;;;;;26.04;100.00;99762.17;1684375;84;21860;-77
2022/07/04 05:21:06;;;;;;;5.47;3.52;;;;;;;26.04;100.00;99759.36;1692020;84;21529;-77
2022/07/04 05:23:33;;;;;;;10.40;3.58;;;;;;;26.16;100.00;99755.98;1684658;85;21659;-76
2022/07/04 05:25:59;;;;;;;6.70;3.40;;;;;;;26.13;100.00;99750.59;1650280;86;21430;-78
2022/07/04 05:28:25;;;;;;;7.47;3.90;;;;;;;26.26;100.00;99744.37;1645432;86;21069;-73
2022/07/04 05:30:54;;;;;;;5.60;4.33;;;;;;;26.33;100.00;99744.31;1651438;86;21154;-74
2022/07/04 05:33:20;;;;;;;6.28;3.67;;;;;;;26.31;100.00;99750.14;1639002;86;20955;-77
2022/07/04 05:35:47;;;;;;;8.10;4.25;;;;;;;26.35;100.00;99747.52;1677243;84;21068;-75
2022/07/04 05:38:15;;;;;;;8.38;4.05;;;;;;;26.43;100.00;99751.03;1682980;84;21036;-74
2022/07/04 05:40:41;;;;;;;11.08;4.65;;;;;;;26.46;100.00;99751.58;1675755;84;21421;-76
2022/07/04 05:43:07;;;;;;;6.17;4.70;;;;;;;26.53;100.00;99752.73;1683509;83;21503;-74
2022/07/04 05:45:34;;;;;;;9.98;5.12;;;;;;;26.67;100.00;99749.69;1651570;85;21100;-72
2022/07/04 05:48:03;;;;;;;6.87;4.45;;;;;;;26.71;100.00;99753.27;1680876;84;21048;-76
2022/07/04 05:50:29;;;;;;;11.48;4.75;;;;;;;26.72;100.00;99749.20;1686184;84;21044;-73
2022/07/04 05:52:56;;;;;;;11.83;4.78;;;;;;;26.86;100.00;99755.86;1681364;84;21022;-74
2022/07/04 05:55:22;;;;;;;7.42;4.58;;;;;;;26.89;100.00;99749.34;1676196;84;21060;-76
2022/07/04 05:57:48;;;;;;;12.93;5.05;;;;;;;27.01;100.00;99752.19;1649304;86;21006;-75
2022/07/04 06:00:15;;;;;;;8.35;4.90;;;;;;;27.31;100.00;99747.67;1652822;86;21071;-75
2022/07/04 06:02:43;;;;;;;9.78;4.35;;;;;;;27.58;100.00;99744.59;1669995;84;21024;-75
2022/07/04 06:05:11;;;;;;;5.55;4.03;;;;;;;27.66;100.00;99740.39;1682624;84;21067;-76
2022/07/04 06:07:39;;;;;;;4.83;3.98;;;;;;;27.76;100.00;99742.05;1675381;84;21597;-74
2022/07/04 06:10:08;;;;;;;8.08;4.62;;;;;;;27.83;100.00;99741.30;1671713;85;21019;-75
2022/07/04 06:12:35;;;;;;;8.83;4.78;;;;;;;27.92;100.00;99743.56;1671845;84;21104;-74
2022/07/04 06:15:02;;;;;;;9.25;4.50;;;;;;;27.98;100.00;99739.59;1684045;85;20950;-75
2022/07/04 06:17:30;;;;;;;7.12;4.40;;;;;;;27.78;100.00;99735.34;1683739;84;20970;-75
2022/07/04 06:19:56;;;;;;;8.10;4.80;;;;;;;27.58;100.00;99734.08;1672064;83;21070;-75
2022/07/04 06:22:25;;;;;;;10.05;4.65;;;;;;;27.85;100.00;99738.04;1677356;84;21066;-73
2022/07/04 06:24:55;;;;;;;7.80;4.70;;;;;;;27.65;100.00;99735.17;1674996;84;21051;-73
2022/07/04 06:27:24;;;;;;;7.35;4.22;;;;;;;27.67;100.00;99735.54;1624557;86;21132;-75
2022/07/04 06:29:51;;;;;;;6.22;4.42;;;;;;;27.73;100.00;99732.41;1653887;84;21147;-73
2022/07/04 06:32:19;;;;;;;8.85;4.42;;;;;;;27.85;100.00;99729.55;1667772;85;21234;-75
2022/07/04 06:37:33;;;;;;;10.25;4.25;;;;;;;27.98;100.00;99723.24;1661910;85;21091;-75
2022/07/04 06:39:59;;;;;;;13.03;5.25;;;;;;;27.99;98.41;99720.58;1640707;86;20989;-75
2022/07/04 06:42:29;;;;;;;6.83;4.28;;;;;;;28.03;99.52;99717.08;1620021;87;21096;-73
2022/07/04 06:44:55;;;;;;;8.83;4.87;;;;;;;28.13;98.76;99718.08;1620846;88;21240;-77
2022/07/04 07:20:43;;;;;;;8.23;3.52;;;;;;;29.04;97.07;99711.77;1673108;83;21026;-76
2022/07/04 07:23:11;;;;;;;4.97;3.50;;;;;;;29.14;98.50;99710.70;1614432;87;21137;-79
2022/07/04 07:25:41;;;;;;;8.05;3.75;;;;;;;29.24;95.13;99713.71;1631538;86;21531;-79
2022/07/04 08:05:35;;;;;;;8.00;3.05;;;;;;;30.11;80.83;99709.11;1662957;85;21312;-77
2022/07/04 08:20:04;;;;;;;5.03;2.75;;;;;;;30.48;77.21;99697.45;1635105;86;21014;-76
2022/07/04 08:22:30;;;;;;;3.22;2.92;;;;;;;30.55;75.76;99700.08;1633064;87;21767;-79
2022/07/04 08:24:57;;;;;;;3.90;2.75;;;;;;;30.60;77.01;99694.44;1650658;85;21540;-76
2022/07/04 08:27:24;;;;;;;6.90;3.33;;;;;;;30.64;75.57;99697.17;1632995;85;21486;-80
2022/07/04 08:29:51;;;;;;;6.80;2.80;;;;;;;30.67;74.10;99699.09;1630531;86;21024;-76
2022/07/04 08:32:19;;;;;;;4.90;2.55;;;;;;;30.76;75.02;99698.41;1654041;86;21019;-78
2022/07/04 08:34:46;;;;;;;4.85;2.90;;;;;;;30.83;73.94;99691.07;1639123;86;21241;-77
2022/07/04 08:37:15;;;;;;;6.28;2.80;;;;;;;30.89;73.33;99692.72;1659953;86;20927;-76
2022/07/04 08:39:43;;;;;;;6.25;2.85;;;;;;;30.97;74.18;99685.53;1619745;86;21015;-74
2022/07/04 08:42:16;;;;;;;14.35;3.15;;;;;;;30.87;74.44;99686.08;1634305;86;20960;-74
2022/07/04 08:44:55;;;;;;;4.80;2.95;;;;;;;30.86;75.85;99687.34;1629880;86;21397;-75
2022/07/04 08:47:26;;;;;;;8.58;2.98;;;;;;;30.91;74.15;99688.80;1652143;86;21298;-77
2022/07/04 08:50:11;;;;;;;5.90;3.10;;;;;;;30.98;76.84;99689.34;1602670;89;21406;-79
2022/07/04 08:52:45;;;;;;;8.33;3.20;;;;;;;31.03;74.45;99689.37;1625161;87;20976;-74
2022/07/04 09:00:54;;;;;;;8.35;3.40;;;;;;;31.39;71.21;99688.75;1635383;86;21147;-75
2022/07/04 09:16:01;;;;;;;6.65;3.37;;;;;;;31.17;73.06;99688.74;1699765;83;20986;-75
2022/07/04 09:18:36;;;;;;;6.30;3.52;;;;;;;31.15;74.00;99681.29;1684663;82;21026;-74
2022/07/04 09:21:06;;;;;;;10.15;3.45;;;;;;;31.37;72.62;99683.37;1685269;83;32633;-77
2022/07/04 09:23:45;;;;;;;5.53;3.02;;;;;;;31.39;71.10;99681.64;1695576;82;21005;-74
2022/07/04 09:26:25;;;;;;;11.08;3.58;;;;;;;31.45;69.64;99681.88;1703501;82;21067;-75
2022/07/04 09:29:28;;;;;;;6.58;3.47;;;;;;;31.44;69.21;99678.88;1697377;82;21088;-76
2022/07/04 09:32:02;;;;;;;4.62;3.20;;;;;;;31.48;71.71;99684.45;1682536;83;21014;-71
2022/07/04 09:34:31;;;;;;;7.65;3.55;;;;;;;31.50;71.64;99677.02;1683108;83;21014;-75
2022/07/04 09:36:58;;;;;;;6.50;3.37;;;;;;;31.56;72.91;99678.66;1679674;83;21053;-75
2022/07/04 09:39:27;;;;;;;8.48;3.60;;;;;;;31.58;71.71;99671.23;1705095;83;21077;-74
2022/07/04 09:42:02;;;;;;;5.47;3.12;;;;;;;31.68;70.13;99677.00;1708439;82;21135;-75
2022/07/04 09:44:48;;;;;;;4.72;3.45;;;;;;;31.77;73.17;99671.36;1679124;84;20890;-74
2022/07/04 09:47:28;;;;;;;11.60;3.05;;;;;;;32.03;72.42;99682.62;1679172;84;25344;-74
2022/07/04 09:50:16;;;;;;;7.10;3.22;;;;;;;31.98;71.56;99674.67;1683364;82;21087;-74
2022/07/04 09:53:00;;;;;;;6.90;3.02;;;;;;;32.08;71.19;99677.56;1668496;84;21060;-73
2022/07/04 09:55:38;;;;;;;5.97;3.40;;;;;;;32.11;73.93;99676.00;1705834;82;20976;-72
2022/07/04 10:06:26;;;;;;;8.45;3.00;;;;;;;32.25;70.65;99667.52;1699556;82;21117;-76
2022/07/04 10:09:16;;;;;;;6.42;2.92;;;;;;;32.03;66.85;99661.25;1704526;83;20962;-73
2022/07/04 10:12:01;;;;;;;5.55;2.85;;;;;;;32.27;67.21;99661.36;1694046;84;20978;-75
2022/07/04 10:14:32;;;;;;;2.98;2.58;;;;;;;32.33;68.27;99644.45;1708015;83;20966;-78
2022/07/04 10:17:01;;;;;;;4.62;2.87;;;;;;;32.39;69.26;99648.27;1693515;83;21005;-74
2022/07/04 10:19:27;;;;;;;9.98;2.90;;;;;;;32.49;70.29;99649.88;1702640;83;20986;-73
2022/07/04 10:22:03;;;;;;;16.30;3.02;;;;;;;32.51;70.67;99645.13;1652650;84;21070;-72
2022/07/04 10:24:30;;;;;;;8.43;2.90;;;;;;;32.50;71.71;99647.18;1677744;84;21614;-71
2022/07/04 10:27:22;;;;;;;10.38;3.45;;;;;;;32.45;68.70;99642.75;1655760;83;21588;-77
2022/07/04 10:30:03;;;;;;;8.83;3.17;;;;;;;32.31;68.21;99643.50;1697347;81;21115;-72
2022/07/04 10:32:31;;;;;;;5.58;2.80;;;;;;;32.22;70.29;99639.17;1702490;82;21084;-75
2022/07/04 10:34:59;;;;;;;4.12;2.90;;;;;;;32.03;73.93;99646.22;1704363;84;21074;-76
2022/07/04 10:37:26;;;;;;;8.48;2.90;;;;;;;32.13;71.82;99647.84;1680060;84;21104;-75
2022/07/04 10:39:53;;;;;;;5.50;2.77;;;;;;;32.17;68.72;99639.97;1650666;84;21061;-76
2022/07/04 10:42:26;;;;;;;6.80;2.58;;;;;;;32.29;69.55;99641.74;1706489;82;20922;-77
2022/07/04 10:44:52;;;;;;;8.70;2.80;;;;;;;32.33;71.97;99641.60;1706771;84;21455;-75
2022/07/04 10:47:27;;;;;;;5.45;2.95;;;;;;;32.35;69.07;99637.63;1699069;83;21431;-72
2022/07/04 10:54:31;;;;;;;6.03;2.90;;;;;;;32.18;70.34;99625.06;1621628;88;21029;-74
2022/07/04 10:57:21;;;;;;;4.72;2.72;;;;;;;32.11;73.56;99625.38;1690681;84;21045;-78
2022/07/04 11:00:01;;;;;;;7.83;2.70;;;;;;;32.11;70.51;99624.73;1687352;84;21026;-75
2022/07/04 11:02:35;;;;;;;9.55;3.42;;;;;;;31.99;71.38;99634.19;1677472;84;21021;-70
2022/07/04 11:05:12;;;;;;;3.83;2.58;;;;;;;32.05;70.22;99620.29;1677238;85;21547;-73
2022/07/04 11:07:45;;;;;;;3.80;2.90;;;;;;;32.04;71.54;99631.50;1677119;84;21034;-72
2022/07/04 11:13:00;;;;;;;4.35;3.00;;;;;;;32.27;69.45;99619.42;1677310;83;20989;-70
2022/07/04 11:15:34;;;;;;;;;;;;;;;32.26;70.67;99612.12;1692780;82;21089;-70
2022/07/04 11:18:11;;;;;;;4.20;2.70;;;;;;;32.34;69.32;99608.36;1688147;82;20157;-75
2022/07/04 11:20:47;;;;;;;4.47;2.35;;;;;;;32.58;70.12;99611.30;1688734;82;21474;-74
2022/07/04 11:23:21;;;;;;;5.55;3.10;;;;;;;32.70;69.57;99610.38;1678689;82;21093;-72
2022/07/04 11:25:52;;;;;;;3.75;2.42;;;;;;;32.76;70.18;99601.34;1692744;83;21105;-74
2022/07/04 11:28:35;;;;;;;4.70;2.75;;;;;;;32.92;71.29;99605.16;1700935;82;20957;-76
2022/07/04 11:31:09;;;;;;;7.85;2.58;;;;;;;33.12;67.59;99599.64;1703520;82;21160;-75
2022/07/04 11:33:37;;;;;;;5.12;2.77;;;;;;;33.28;65.16;99598.53;1699926;82;21537;-73
2022/07/04 11:36:20;;;;;;;4.95;2.70;;;;;;;33.41;63.23;99595.48;1696753;82;21012;-72
2022/07/04 11:39:11;;;;;;;5.72;2.58;;;;;;;33.45;61.89;99596.13;1695419;82;21039;-74
2022/07/04 11:47:41;;;;;;;6.58;2.67;;;;;;;33.50;57.43;99589.78;1646434;85;21025;-75
2022/07/04 11:50:14;;;;;;;2.70;2.27;;;;;;;33.49;55.03;99581.03;1690775;83;21597;-72
2022/07/04 11:52:44;;;;;;;7.17;2.58;;;;;;;33.48;59.38;99585.80;1641727;85;21163;-72
2022/07/04 11:55:13;;;;;;;4.42;2.52;;;;;;;33.48;63.49;99576.61;1690349;82;21078;-74
2022/07/04 11:57:50;;;;;;;6.80;2.60;;;;;;;33.54;61.25;99575.31;1692320;83;21010;-73
2022/07/04 12:00:18;;;;;;;5.85;2.95;;;;;;;33.55;61.10;99572.63;1699855;83;21625;-75
2022/07/04 12:02:47;;;;;;;9.93;3.40;;;;;;;33.74;60.21;99576.26;1681288;82;21486;-75
2022/07/04 12:05:21;;;;;;;3.92;2.70;;;;;;;33.84;57.52;99574.16;1706031;82;21044;-74
2022/07/04 12:07:48;;;;;;;3.72;2.50;;;;;;;33.93;56.51;99575.39;1707715;81;21070;-73
2022/07/04 12:10:24;;;;;;;3.12;2.58;;;;;;;33.87;58.72;99574.61;1680655;84;21782;-73
2022/07/04 12:12:58;;;;;;;5.35;2.60;;;;;;;33.91;59.99;99564.45;1679602;84;21046;-73
2022/07/04 12:15:48;;;;;;;5.25;2.77;;;;;;;33.86;60.26;99559.39;1686463;82;21139;-73
2022/07/04 12:18:20;;;;;;;2.95;2.58;;;;;;;33.87;59.62;99560.96;1706484;82;21176;-72
2022/07/04 12:24:44;;;;;;;4.33;2.40;;;;;;;33.79;61.01;99558.30;1614607;87;21079;-74
2022/07/04 12:27:25;;;;;;;5.08;2.87;;;;;;;33.63;60.73;99556.74;1670626;83;21041;-74
2022/07/04 12:29:55;;;;;;;9.95;3.72;;;;;;;33.66;61.70;99551.37;1687575;84;21134;-75
2022/07/04 12:32:46;;;;;;;5.03;2.55;;;;;;;33.73;63.93;99554.67;1684474;83;21173;-75
2022/07/04 12:35:41;;;;;;;5.97;2.58;;;;;;;33.84;63.35;99554.16;1657396;84;20983;-73
2022/07/04 12:38:29;;;;;;;3.52;2.75;;;;;;;33.98;60.43;99551.22;1679165;84;21297;-75
2022/07/04 12:41:11;;;;;;;7.08;2.75;;;;;;;34.02;62.09;99552.48;1701731;83;21575;-75
2022/07/04 12:43:44;;;;;;;4.45;2.90;;;;;;;34.14;62.47;99554.95;1695227;83;21058;-75
2022/07/04 12:46:31;;;;;;;5.15;2.50;;;;;;;34.34;59.81;99550.77;1698075;83;21114;-73
2022/07/04 12:49:04;;;;;;;6.92;2.45;;;;;;;34.36;59.85;99555.33;1696938;83;21050;-73
2022/07/04 12:51:35;;;;;;;4.60;2.30;;;;;;;34.45;59.02;99554.48;1694909;83;21527;-74
2022/07/04 12:54:09;;;;;;;5.55;2.85;;;;;;;34.59;57.76;99545.81;1692371;84;21003;-75
2022/07/04 12:56:43;;;;;;;8.38;2.72;;;;;;;34.66;57.54;99548.31;1696068;84;21014;-74
2022/07/04 12:59:15;;;;;;;3.25;2.33;;;;;;;34.69;55.76;99544.47;1687478;83;21007;-73
2022/07/04 13:01:43;;;;;;;14.20;2.45;;;;;;;34.86;52.70;99548.33;1668061;86;21015;-74
2022/07/04 13:04:09;;;;;;;2.47;1.82;;;;;;;34.94;50.18;99542.38;1670588;85;21524;-75
2022/07/04 13:06:39;;;;;;;2.37;1.90;;;;;;;34.89;50.05;99550.20;1679303;84;21017;-75
2022/07/04 13:09:10;;;;;;;3.85;1.92;;;;;;;34.87;50.36;99544.20;1681178;84;20908;-74
2022/07/04 13:14:29;;;;;;;7.17;2.60;;;;;;;34.93;47.50;99544.30;1683528;83;21048;-76
2022/07/04 13:16:56;;;;;;;5.17;2.52;;;;;;;34.85;46.28;99534.66;1680884;84;21490;-74
2022/07/04 13:19:26;;;;;;;3.70;2.12;;;;;;;34.77;48.08;99526.31;1679738;83;21554;-76
2022/07/04 13:21:53;;;;;;;4.50;2.30;;;;;;;34.74;47.24;99521.58;1682334;83;20988;-76
2022/07/04 13:24:21;;;;;;;6.17;2.50;;;;;;;34.71;47.45;99521.94;1667249;83;21014;-73
2022/07/04 13:26:48;;;;;;;5.17;2.65;;;;;;;34.67;50.61;99517.00;1674035;83;21527;-74
2022/07/04 13:29:14;;;;;;;3.80;2.15;;;;;;;34.62;51.65;99518.33;1694707;83;21678;-74
2022/07/04 13:31:42;;;;;;;2.98;2.30;;;;;;;34.59;47.22;99513.73;1723377;83;21508;-73
2022/07/04 13:34:09;;;;;;;2.90;2.25;;;;;;;34.54;50.66;99515.84;1682083;83;20998;-75
2022/07/04 13:36:35;;;;;;;11.05;2.65;;;;;;;34.50;48.55;99514.45;1686403;85;21031;-74
2022/07/04 13:39:04;;;;;;;3.37;2.75;;;;;;;34.42;48.45;99511.16;1679571;85;20892;-74
2022/07/04 13:41:39;;;;;;;2.30;2.10;;;;;;;34.43;49.32;99517.05;1664160;83;21152;-76
2022/07/04 13:44:08;;;;;;;2.95;2.08;;;;;;;34.44;49.24;99513.70;1670773;84;21004;-73
2022/07/04 13:49:57;;;;;;;3.98;2.55;;;;;;;34.51;46.87;99510.30;1637996;85;21522;-76
2022/07/04 13:52:24;;;;;;;3.27;2.67;;;;;;;34.48;46.36;99508.56;1674754;85;21074;-78
2022/07/04 13:54:55;;;;;;;3.65;2.42;;;;;;;34.47;46.18;99498.42;1671958;85;21234;-76
2022/07/04 13:57:28;;;;;;;5.80;2.70;;;;;;;34.48;48.02;99492.84;1672702;85;20967;-73
2022/07/04 13:59:54;;;;;;;4.08;2.45;;;;;;;34.57;48.61;99491.98;1649064;85;21050;-73